Time;durP1;ratioP1;P1;durP2;ratioP2;P2;SDS_P1;SDS_P2;PMS_P1;PMS_P2;Temp;Humidity;BMP_temperature;BMP_pressure;BME280_temperature;BME280_humidity;BME280_pressure;Samples;Min_cycle;Max_cycle;Signal;HPM_P1;HPM_P2
2021/09/02 00:00:32;;;;;;;6.50;6.00;;;25.00;52.10;;;;;;5020596;28;20430;-43
2021/09/02 00:03:03;;;;;;;7.33;6.73;;;25.00;52.30;;;;;;5020534;28;20421;-41
2021/09/02 00:05:36;;;;;;;6.50;5.97;;;25.00;50.90;;;;;;5020471;28;20508;-41
2021/09/02 00:08:07;;;;;;;6.90;6.30;;;24.90;51.50;;;;;;5020298;28;20481;-43
2021/09/02 00:10:38;;;;;;;5.90;5.40;;;24.90;51.60;;;;;;5019908;28;20454;-44
2021/09/02 00:13:09;;;;;;;6.40;5.90;;;24.80;50.90;;;;;;5019766;28;20507;-42
2021/09/02 00:15:40;;;;;;;7.30;5.83;;;24.80;51.70;;;;;;5020139;28;20487;-48
2021/09/02 00:18:12;;;;;;;5.97;5.13;;;24.80;52.30;;;;;;5020801;28;20430;-46
2021/09/02 00:20:44;;;;;;;5.80;5.30;;;24.70;52.20;;;;;;5020340;28;20822;-40
2021/09/02 00:23:15;;;;;;;7.50;5.13;;;24.70;52.00;;;;;;5026556;28;20526;-43
2021/09/02 00:25:46;;;;;;;5.13;4.73;;;24.60;51.50;;;;;;5039270;28;20525;-40
2021/09/02 00:28:17;;;;;;;4.60;4.20;;;24.50;52.00;;;;;;5039620;28;20449;-40
2021/09/02 00:30:52;;;;;;;4.40;4.10;;;24.50;52.40;;;;;;5040102;28;20452;-44
2021/09/02 00:33:23;;;;;;;3.83;3.43;;;24.40;53.10;;;;;;5040153;28;20450;-43
2021/09/02 00:35:56;;;;;;;4.33;3.30;;;24.30;53.80;;;;;;5040009;28;20946;-46
2021/09/02 00:38:27;;;;;;;3.30;3.00;;;24.20;54.20;;;;;;5039381;28;20514;-40
2021/09/02 00:40:58;;;;;;;3.37;3.07;;;24.20;53.60;;;;;;5040295;28;20449;-43
2021/09/02 00:43:31;;;;;;;3.27;2.97;;;24.20;53.80;;;;;;5042922;28;20480;-43
2021/09/02 00:46:02;;;;;;;2.90;2.70;;;24.20;54.20;;;;;;5043111;28;20489;-42
2021/09/02 00:48:33;;;;;;;3.20;2.83;;;24.10;53.80;;;;;;5043613;28;20430;-42
2021/09/02 00:51:06;;;;;;;2.70;2.50;;;24.00;54.60;;;;;;5043334;28;20456;-40
2021/09/02 00:53:37;;;;;;;2.77;2.57;;;24.00;54.30;;;;;;5042716;28;20449;-44
2021/09/02 00:56:08;;;;;;;3.70;3.00;;;23.90;54.20;;;;;;5035131;28;20471;-42
2021/09/02 00:58:39;;;;;;;2.30;2.10;;;23.80;54.30;;;;;;5023005;28;20442;-41
2021/09/02 01:01:11;;;;;;;3.70;2.50;;;23.90;53.80;;;;;;5023600;28;20472;-40
2021/09/02 01:03:42;;;;;;;3.20;2.83;;;23.70;53.60;;;;;;5023368;28;20449;-39
2021/09/02 01:06:15;;;;;;;2.53;2.33;;;23.70;52.90;;;;;;5023099;28;20494;-39
2021/09/02 01:08:47;;;;;;;2.30;2.10;;;23.60;53.90;;;;;;5022857;28;20465;-39
2021/09/02 01:11:18;;;;;;;3.13;2.00;;;23.50;54.70;;;;;;5023086;28;20477;-40
2021/09/02 01:13:49;;;;;;;2.20;2.00;;;23.50;55.10;;;;;;5022365;28;20602;-40
2021/09/02 01:16:20;;;;;;;2.40;2.20;;;23.60;55.40;;;;;;5023403;28;20423;-43
2021/09/02 01:18:51;;;;;;;2.50;2.03;;;23.50;56.10;;;;;;5023055;28;20483;-46
2021/09/02 01:21:25;;;;;;;4.10;2.20;;;23.50;56.50;;;;;;5022977;28;20446;-45
2021/09/02 01:23:58;;;;;;;2.67;2.30;;;23.40;56.70;;;;;;5034717;28;20486;-42
2021/09/02 01:26:28;;;;;;;2.37;1.90;;;23.50;57.00;;;;;;5042645;28;20524;-42
2021/09/02 01:29:00;;;;;;;2.20;2.00;;;23.40;56.90;;;;;;5042121;28;20424;-45
2021/09/02 01:31:31;;;;;;;2.30;2.10;;;23.30;57.10;;;;;;5043065;28;20440;-47
2021/09/02 01:34:01;;;;;;;4.13;2.00;;;23.30;57.60;;;;;;5042113;28;20802;-43
2021/09/02 01:36:32;;;;;;;2.30;2.07;;;23.30;57.30;;;;;;5042537;28;21016;-46
2021/09/02 01:39:05;;;;;;;4.20;2.50;;;23.20;57.80;;;;;;5041441;28;20502;-41
2021/09/02 01:41:36;;;;;;;2.60;2.40;;;23.10;58.10;;;;;;5042468;28;20458;-46
2021/09/02 01:44:07;;;;;;;1.90;1.67;;;23.10;58.70;;;;;;5041549;28;20499;-44
2021/09/02 01:46:38;;;;;;;3.60;2.10;;;23.00;58.50;;;;;;5042380;28;20506;-40
2021/09/02 01:49:09;;;;;;;2.60;2.20;;;23.00;58.80;;;;;;5042101;28;20439;-50
2021/09/02 01:51:40;;;;;;;2.87;2.00;;;22.90;59.30;;;;;;5041681;28;20480;-40
2021/09/02 01:54:13;;;;;;;2.33;2.13;;;22.80;59.20;;;;;;5041288;28;20488;-44
2021/09/02 01:56:44;;;;;;;2.23;2.13;;;22.70;59.20;;;;;;5029646;28;20421;-40
2021/09/02 01:59:14;;;;;;;2.53;2.27;;;22.70;59.70;;;;;;5021802;28;20440;-43
2021/09/02 02:01:46;;;;;;;2.80;2.60;;;22.70;59.40;;;;;;5022603;28;20426;-41
2021/09/02 02:04:17;;;;;;;2.97;2.00;;;22.60;59.80;;;;;;5021684;28;20470;-44
2021/09/02 02:06:48;;;;;;;3.03;2.50;;;22.50;60.20;;;;;;5022068;28;20482;-41
2021/09/02 02:09:20;;;;;;;2.90;2.33;;;22.50;60.00;;;;;;5021234;28;20447;-41
2021/09/02 02:11:51;;;;;;;3.67;2.30;;;22.40;60.70;;;;;;5022153;28;20421;-46
2021/09/02 02:14:22;;;;;;;2.57;2.37;;;22.30;61.30;;;;;;5021109;28;20417;-40
2021/09/02 02:16:53;;;;;;;3.60;2.80;;;22.30;60.90;;;;;;5022186;28;20416;-48
2021/09/02 02:19:24;;;;;;;2.73;2.33;;;22.20;61.60;;;;;;5021578;28;20826;-45
2021/09/02 02:21:56;;;;;;;2.57;2.37;;;22.10;62.10;;;;;;5022129;28;20474;-43
2021/09/02 02:24:29;;;;;;;2.77;2.57;;;22.10;61.60;;;;;;5037623;28;20506;-42
2021/09/02 02:27:00;;;;;;;3.13;2.70;;;22.00;61.70;;;;;;5041659;28;20518;-43
2021/09/02 02:29:31;;;;;;;3.27;2.70;;;22.00;61.40;;;;;;5041196;28;20465;-44
2021/09/02 02:32:02;;;;;;;2.87;2.60;;;21.90;61.40;;;;;;5041736;28;20445;-41
2021/09/02 02:34:33;;;;;;;2.60;2.30;;;21.90;61.40;;;;;;5041093;28;20470;-43
2021/09/02 02:37:04;;;;;;;3.20;2.67;;;21.90;61.40;;;;;;5041549;28;20457;-45
2021/09/02 02:39:38;;;;;;;2.40;2.03;;;21.80;61.80;;;;;;5040475;28;20477;-41
2021/09/02 02:42:10;;;;;;;3.43;3.13;;;21.70;61.90;;;;;;5041491;28;20420;-49
2021/09/02 02:44:41;;;;;;;6.70;2.70;;;21.60;61.90;;;;;;5040898;28;20453;-44
2021/09/02 02:47:12;;;;;;;2.47;2.27;;;21.60;61.90;;;;;;5041326;28;20512;-39
2021/09/02 02:49:43;;;;;;;3.33;2.40;;;21.50;62.50;;;;;;5041041;28;20430;-44
2021/09/02 02:52:14;;;;;;;5.70;2.57;;;21.40;63.20;;;;;;5041264;28;20473;-41
2021/09/02 02:54:47;;;;;;;2.97;2.10;;;21.40;62.80;;;;;;5040106;28;20463;-42
2021/09/02 02:57:18;;;;;;;2.60;2.10;;;21.40;62.80;;;;;;5023772;28;20578;-40
2021/09/02 02:59:49;;;;;;;3.30;2.90;;;21.30;63.00;;;;;;5020962;28;20587;-38
2021/09/02 03:02:20;;;;;;;2.30;2.07;;;21.20;63.30;;;;;;5021372;28;20491;-40
2021/09/02 03:04:51;;;;;;;2.53;2.10;;;21.20;63.10;;;;;;5020097;28;20496;-44
2021/09/02 03:07:22;;;;;;;2.13;1.93;;;21.10;63.40;;;;;;5021097;28;20465;-44
2021/09/02 03:09:55;;;;;;;2.50;2.13;;;21.10;63.10;;;;;;5020279;28;20432;-44
2021/09/02 03:12:26;;;;;;;2.20;2.00;;;21.00;63.30;;;;;;5020923;28;20464;-41
2021/09/02 03:14:57;;;;;;;4.90;2.50;;;21.00;63.80;;;;;;5020896;28;20478;-43
2021/09/02 03:17:28;;;;;;;2.73;2.27;;;20.90;64.40;;;;;;5021206;28;20470;-39
2021/09/02 03:19:59;;;;;;;3.27;2.67;;;20.80;65.20;;;;;;5020782;28;20429;-41
2021/09/02 03:22:30;;;;;;;2.17;1.97;;;20.70;66.20;;;;;;5021972;28;20488;-40
2021/09/02 03:25:03;;;;;;;2.20;2.00;;;20.60;66.70;;;;;;5040032;28;20454;-38
2021/09/02 03:27:35;;;;;;;5.13;2.33;;;20.60;67.40;;;;;;5040155;28;20906;-39
2021/09/02 03:30:08;;;;;;;2.43;2.00;;;20.40;67.60;;;;;;5040955;28;20807;-40
2021/09/02 03:32:39;;;;;;;1.90;1.80;;;20.40;67.90;;;;;;5040681;28;20416;-40
2021/09/02 03:35:11;;;;;;;2.20;2.00;;;20.30;68.30;;;;;;5040268;28;20560;-41
2021/09/02 03:37:42;;;;;;;3.30;1.63;;;20.20;68.60;;;;;;5040085;28;20450;-39
2021/09/02 03:40:15;;;;;;;3.03;1.70;;;20.20;68.30;;;;;;5039915;28;20480;-40
2021/09/02 03:42:46;;;;;;;2.37;1.67;;;20.10;68.40;;;;;;5039913;28;20474;-46
2021/09/02 03:45:17;;;;;;;2.00;1.80;;;20.00;68.90;;;;;;5040235;28;20545;-40
2021/09/02 03:47:49;;;;;;;2.23;2.03;;;20.00;68.50;;;;;;5040358;28;20484;-38
2021/09/02 03:50:21;;;;;;;3.27;1.80;;;20.00;68.50;;;;;;5040176;28;20523;-41
2021/09/02 03:52:52;;;;;;;2.23;1.70;;;19.90;68.90;;;;;;5039646;28;20452;-40
2021/09/02 03:55:24;;;;;;;1.77;1.67;;;19.80;69.20;;;;;;5038200;28;20472;-46
2021/09/02 03:57:55;;;;;;;1.90;1.70;;;19.80;69.20;;;;;;5020008;28;20460;-41
2021/09/02 04:00:26;;;;;;;2.20;2.00;;;19.80;69.30;;;;;;5020358;28;20466;-43
2021/09/02 04:02:57;;;;;;;1.83;1.60;;;19.70;69.40;;;;;;5020095;28;20489;-45
2021/09/02 04:05:29;;;;;;;2.90;1.47;;;19.60;69.80;;;;;;5020043;28;20534;-39
2021/09/02 04:08:00;;;;;;;1.80;1.70;;;19.50;69.50;;;;;;5019767;28;20579;-41
2021/09/02 04:10:32;;;;;;;4.20;1.60;;;19.50;70.00;;;;;;5019834;28;20481;-39
2021/09/02 04:13:03;;;;;;;2.13;1.73;;;19.40;70.20;;;;;;5019686;28;20512;-46
2021/09/02 04:15:34;;;;;;;1.60;1.50;;;19.30;70.50;;;;;;5020131;28;20508;-39
2021/09/02 04:18:06;;;;;;;1.90;1.20;;;19.20;70.60;;;;;;5019947;28;20450;-38
2021/09/02 04:20:37;;;;;;;2.67;1.57;;;19.20;70.80;;;;;;5019960;28;20461;-38
2021/09/02 04:23:08;;;;;;;3.43;1.57;;;19.10;71.10;;;;;;5025802;28;20485;-39
2021/09/02 04:25:40;;;;;;;1.97;1.50;;;19.00;71.60;;;;;;5039250;28;20450;-40
2021/09/02 04:28:11;;;;;;;2.00;1.50;;;19.00;71.80;;;;;;5039434;28;20572;-42
2021/09/02 04:30:43;;;;;;;6.37;1.60;;;18.90;72.80;;;;;;5039957;28;20438;-41
2021/09/02 04:33:13;;;;;;;3.10;1.70;;;18.80;72.30;;;;;;5039757;28;20939;-38
2021/09/02 04:35:44;;;;;;;5.40;1.90;;;18.80;72.60;;;;;;5039400;28;20457;-39
2021/09/02 04:38:18;;;;;;;5.47;1.70;;;18.80;72.80;;;;;;5039312;28;20449;-39
2021/09/02 04:40:52;;;;;;;1.53;1.43;;;18.90;72.80;;;;;;5039239;28;20453;-40
2021/09/02 04:43:23;;;;;;;1.73;1.60;;;18.80;73.30;;;;;;5039266;28;20422;-41
2021/09/02 04:45:54;;;;;;;2.30;1.63;;;18.70;73.80;;;;;;5039590;28;20511;-41
2021/09/02 04:48:25;;;;;;;1.80;1.70;;;18.70;74.20;;;;;;5039419;28;20517;-39
2021/09/02 04:50:56;;;;;;;2.23;1.73;;;18.70;74.70;;;;;;5039351;28;20478;-40
2021/09/02 04:53:27;;;;;;;2.40;1.73;;;18.60;75.30;;;;;;5038936;28;20594;-41
2021/09/02 04:55:59;;;;;;;2.83;1.90;;;18.60;75.50;;;;;;5032634;28;21277;-44
2021/09/02 04:58:30;;;;;;;1.73;1.63;;;18.60;75.70;;;;;;5019276;28;20495;-38
2021/09/02 05:01:01;;;;;;;2.00;1.70;;;18.60;76.40;;;;;;5019636;28;20429;-42
2021/09/02 05:03:33;;;;;;;4.07;1.63;;;18.50;76.80;;;;;;5019377;28;20454;-38
2021/09/02 05:06:04;;;;;;;1.47;1.37;;;18.40;77.50;;;;;;5019154;28;20450;-40
2021/09/02 05:08:35;;;;;;;2.20;2.00;;;18.40;78.00;;;;;;5019101;28;20923;-43
2021/09/02 05:11:07;;;;;;;3.10;1.50;;;18.40;78.40;;;;;;5018961;28;20421;-42
2021/09/02 05:13:38;;;;;;;2.40;1.73;;;18.30;79.30;;;;;;5018986;28;20453;-38
2021/09/02 05:16:09;;;;;;;3.00;1.90;;;18.30;80.00;;;;;;5019314;28;20470;-40
2021/09/02 05:18:40;;;;;;;3.63;2.00;;;18.30;80.50;;;;;;5019191;28;20477;-39
2021/09/02 05:21:11;;;;;;;1.80;1.53;;;18.30;80.90;;;;;;5019111;28;20826;-38
2021/09/02 05:23:43;;;;;;;2.30;1.77;;;18.20;81.70;;;;;;5029766;28;20483;-40
2021/09/02 05:26:16;;;;;;;1.50;1.40;;;18.20;82.40;;;;;;5038418;28;20453;-41
2021/09/02 05:28:47;;;;;;;2.30;1.90;;;18.20;83.00;;;;;;5041682;28;20596;-40
2021/09/02 05:31:18;;;;;;;1.60;1.50;;;18.20;83.40;;;;;;5042624;28;20441;-41
2021/09/02 05:33:49;;;;;;;3.97;1.87;;;18.10;83.70;;;;;;5042230;28;20450;-42
2021/09/02 05:36:20;;;;;;;2.23;1.40;;;18.10;84.20;;;;;;5042122;28;20460;-40
2021/09/02 05:38:51;;;;;;;4.20;1.90;;;18.00;84.70;;;;;;5041772;28;20513;-39
2021/09/02 05:41:23;;;;;;;1.83;1.40;;;18.10;85.00;;;;;;5042277;28;20453;-40
2021/09/02 05:43:54;;;;;;;2.20;1.60;;;18.00;85.10;;;;;;5041717;28;20548;-42
2021/09/02 05:46:25;;;;;;;3.37;1.90;;;18.00;85.40;;;;;;5042130;28;20545;-39
2021/09/02 05:48:56;;;;;;;3.30;1.67;;;18.00;86.00;;;;;;5041844;28;20613;-39
2021/09/02 05:51:27;;;;;;;2.23;1.70;;;18.00;86.30;;;;;;5042169;28;20590;-39
2021/09/02 05:53:58;;;;;;;3.13;1.60;;;17.90;86.90;;;;;;5041517;28;20536;-41
2021/09/02 05:56:32;;;;;;;1.87;1.40;;;17.90;87.00;;;;;;5031679;28;20462;-39
2021/09/02 05:59:02;;;;;;;4.07;2.10;;;17.80;87.10;;;;;;5022096;28;20532;-38
2021/09/02 06:01:34;;;;;;;2.90;1.40;;;17.80;87.40;;;;;;5022699;28;20458;-37
2021/09/02 06:04:05;;;;;;;2.33;1.93;;;17.80;87.30;;;;;;5022195;28;20442;-38
2021/09/02 06:06:36;;;;;;;2.73;1.90;;;17.80;87.50;;;;;;5022232;28;20454;-38
2021/09/02 06:09:08;;;;;;;1.57;1.47;;;17.80;87.70;;;;;;5021473;28;20521;-38
2021/09/02 06:11:41;;;;;;;1.43;1.30;;;17.80;87.90;;;;;;5022353;28;20446;-41
2021/09/02 06:14:12;;;;;;;1.93;1.70;;;17.70;88.20;;;;;;5021948;28;20457;-39
2021/09/02 06:16:43;;;;;;;1.97;1.80;;;17.70;88.40;;;;;;5022186;28;20487;-38
2021/09/02 06:19:13;;;;;;;2.20;2.00;;;17.70;88.40;;;;;;5021738;28;20529;-38
2021/09/02 06:21:45;;;;;;;2.13;1.53;;;17.60;88.70;;;;;;5022241;28;20482;-38
2021/09/02 06:24:16;;;;;;;1.57;1.47;;;17.60;89.20;;;;;;5036662;28;20450;-38
2021/09/02 06:26:49;;;;;;;4.40;1.80;;;17.40;89.80;;;;;;5041802;28;20514;-38
2021/09/02 06:29:20;;;;;;;4.20;1.90;;;17.40;90.00;;;;;;5041578;28;20488;-37
2021/09/02 06:31:51;;;;;;;1.93;1.60;;;17.40;90.00;;;;;;5041850;28;20577;-38
2021/09/02 06:34:22;;;;;;;2.40;1.97;;;17.40;90.10;;;;;;5041834;28;20441;-40
2021/09/02 06:36:53;;;;;;;1.90;1.67;;;17.40;90.10;;;;;;5041850;28;20479;-38
2021/09/02 06:39:24;;;;;;;5.00;2.23;;;17.50;90.20;;;;;;5039868;28;20453;-39
2021/09/02 06:41:56;;;;;;;2.30;1.70;;;17.30;90.40;;;;;;5041994;28;20437;-43
2021/09/02 06:44:27;;;;;;;2.07;1.87;;;17.40;90.60;;;;;;5040986;28;20425;-43
2021/09/02 06:46:58;;;;;;;2.47;2.00;;;17.30;90.80;;;;;;5041866;28;20481;-41
2021/09/02 06:49:29;;;;;;;1.73;1.63;;;17.30;90.90;;;;;;5041336;28;20524;-41
2021/09/02 06:52:00;;;;;;;2.00;1.80;;;17.30;91.00;;;;;;5041629;28;20460;-40
2021/09/02 06:54:32;;;;;;;4.30;2.17;;;17.20;91.20;;;;;;5040676;28;20510;-42
2021/09/02 06:57:05;;;;;;;2.93;2.07;;;17.20;91.40;;;;;;5026388;28;20442;-38
2021/09/02 06:59:36;;;;;;;2.33;1.40;;;17.20;91.50;;;;;;5021545;28;20435;-38
2021/09/02 07:02:07;;;;;;;2.10;1.80;;;17.20;91.70;;;;;;5021656;28;20462;-38
2021/09/02 07:04:38;;;;;;;2.00;1.57;;;17.20;91.80;;;;;;5021332;28;20450;-39
2021/09/02 07:07:09;;;;;;;2.73;1.87;;;17.20;92.10;;;;;;5021322;28;20646;-39
2021/09/02 07:09:40;;;;;;;1.60;1.50;;;17.10;92.50;;;;;;5020420;28;20489;-39
2021/09/02 07:12:13;;;;;;;2.73;1.93;;;17.10;92.70;;;;;;5021498;28;20438;-38
2021/09/02 07:14:44;;;;;;;4.37;1.87;;;17.00;93.00;;;;;;5020944;28;21014;-38
2021/09/02 07:17:16;;;;;;;1.97;1.87;;;16.90;93.40;;;;;;5020984;28;20450;-38
2021/09/02 07:19:47;;;;;;;2.10;1.87;;;16.90;93.90;;;;;;5020795;28;20450;-38
2021/09/02 07:22:18;;;;;;;1.87;1.77;;;16.80;94.30;;;;;;5020721;28;20478;-38
2021/09/02 07:24:49;;;;;;;2.37;2.00;;;16.70;94.60;;;;;;5020267;28;20473;-38
2021/09/02 07:27:22;;;;;;;2.27;2.07;;;16.70;95.00;;;;;;5020557;28;20458;-39
2021/09/02 07:29:53;;;;;;;3.23;2.03;;;16.60;95.40;;;;;;5020783;28;20558;-38
2021/09/02 07:32:26;;;;;;;2.57;2.00;;;16.50;96.00;;;;;;5020760;28;20450;-38
2021/09/02 07:34:57;;;;;;;3.57;2.40;;;16.40;96.50;;;;;;5020608;28;20499;-38
2021/09/02 07:37:28;;;;;;;3.20;2.23;;;16.40;96.90;;;;;;5020767;28;20537;-39
2021/09/02 07:39:59;;;;;;;2.80;2.27;;;16.30;97.30;;;;;;5020030;28;20462;-37
2021/09/02 07:42:31;;;;;;;2.93;2.30;;;16.30;98.20;;;;;;5020561;28;20458;-37
2021/09/02 07:45:02;;;;;;;2.63;2.37;;;16.20;98.30;;;;;;5020784;28;20447;-37
2021/09/02 07:47:34;;;;;;;2.30;2.07;;;16.20;98.40;;;;;;5020826;28;20950;-39
2021/09/02 07:50:06;;;;;;;1.90;1.80;;;16.20;99.00;;;;;;5020053;28;20501;-37
2021/09/02 07:52:38;;;;;;;2.30;2.10;;;16.10;99.30;;;;;;5020149;28;20450;-37
2021/09/02 07:55:11;;;;;;;2.13;1.77;;;16.00;99.70;;;;;;5020191;28;20503;-37
2021/09/02 07:57:47;;;;;;;3.10;2.30;;;16.00;99.90;;;;;;5020227;28;20530;-36
2021/09/02 08:00:19;;;;;;;3.67;2.03;;;15.90;99.90;;;;;;5020600;28;20532;-39
2021/09/02 08:02:50;;;;;;;3.47;2.60;;;15.80;99.90;;;;;;5020375;28;20469;-36
2021/09/02 08:05:21;;;;;;;2.00;1.80;;;15.80;99.90;;;;;;5020701;28;20514;-36
2021/09/02 08:07:54;;;;;;;2.73;2.03;;;15.70;99.90;;;;;;5020153;28;21373;-37
2021/09/02 08:10:26;;;;;;;1.80;1.70;;;15.70;99.90;;;;;;5020057;28;20489;-38
2021/09/02 08:12:59;;;;;;;4.67;2.17;;;15.70;99.90;;;;;;5020092;28;20567;-37
2021/09/02 08:15:31;;;;;;;3.97;2.10;;;15.70;99.90;;;;;;5020515;28;20439;-36
2021/09/02 08:18:02;;;;;;;2.63;2.10;;;15.60;99.90;;;;;;5020211;28;20480;-37
2021/09/02 08:20:33;;;;;;;3.60;2.53;;;15.60;99.90;;;;;;5020068;28;20458;-37
2021/09/02 08:23:06;;;;;;;2.90;1.90;;;15.60;99.90;;;;;;5025494;28;20550;-37
2021/09/02 08:25:37;;;;;;;2.57;2.33;;;15.50;99.90;;;;;;5039586;28;20449;-37
2021/09/02 08:28:10;;;;;;;3.10;2.33;;;15.30;99.90;;;;;;5039496;28;20449;-37
2021/09/02 08:30:41;;;;;;;2.70;2.47;;;15.30;99.90;;;;;;5039800;28;20493;-37
2021/09/02 08:33:12;;;;;;;2.17;1.97;;;15.30;99.90;;;;;;5039891;28;20449;-37
2021/09/02 08:35:44;;;;;;;2.67;2.07;;;15.20;99.90;;;;;;5039816;28;20464;-37
2021/09/02 08:38:15;;;;;;;3.20;2.30;;;15.10;99.90;;;;;;5039417;28;20477;-37
2021/09/02 08:40:46;;;;;;;2.97;2.10;;;15.10;99.90;;;;;;5039114;28;20464;-38
2021/09/02 08:43:19;;;;;;;3.17;2.20;;;15.10;99.90;;;;;;5039456;28;20452;-37
2021/09/02 08:46:10;;;;;;;2.53;2.30;;;15.20;99.90;;;;;;5039802;28;20570;-38
2021/09/02 08:48:45;;;;;;;3.10;2.40;;;15.10;99.90;;;;;;5039417;28;20449;-37
2021/09/02 08:51:16;;;;;;;3.07;2.50;;;15.10;99.90;;;;;;5039582;28;20524;-37
2021/09/02 08:53:50;;;;;;;2.90;2.53;;;15.00;99.90;;;;;;5039300;28;20585;-38
2021/09/02 08:56:21;;;;;;;3.07;2.40;;;14.90;99.90;;;;;;5030428;28;20790;-37
2021/09/02 08:58:53;;;;;;;2.23;2.03;;;14.90;99.90;;;;;;5019325;28;20446;-38
2021/09/02 09:01:27;;;;;;;3.80;2.53;;;14.80;99.90;;;;;;5019971;28;20435;-37
2021/09/02 09:03:58;;;;;;;3.00;2.53;;;14.70;99.90;;;;;;5023120;28;20448;-37
2021/09/02 09:06:30;;;;;;;2.27;2.07;;;14.60;99.90;;;;;;5023132;28;20577;-37
2021/09/02 09:09:01;;;;;;;2.30;2.10;;;14.60;99.90;;;;;;5021915;28;20566;-37
2021/09/02 09:11:32;;;;;;;3.13;2.53;;;14.60;99.90;;;;;;5023127;28;20482;-37
2021/09/02 09:14:11;;;;;;;3.10;2.90;;;14.40;99.90;;;;;;5022476;28;20450;-37
2021/09/02 09:16:47;;;;;;;2.50;2.30;;;14.40;99.90;;;;;;5023179;28;20469;-36
2021/09/02 09:19:39;;;;;;;2.80;2.60;;;14.40;99.90;;;;;;5022775;28;20487;-36
2021/09/02 09:22:12;;;;;;;2.90;2.60;;;14.30;99.90;;;;;;5022717;28;20503;-37
2021/09/02 09:24:45;;;;;;;2.47;2.27;;;14.30;99.90;;;;;;5040930;28;20464;-37
2021/09/02 09:27:16;;;;;;;2.73;2.53;;;14.20;99.90;;;;;;5042288;28;20449;-37
2021/09/02 09:30:06;;;;;;;3.20;2.50;;;14.20;99.90;;;;;;5042041;28;20481;-38
2021/09/02 09:32:42;;;;;;;2.83;2.63;;;14.20;99.90;;;;;;5042335;28;20501;-38
2021/09/02 09:35:16;;;;;;;3.90;2.70;;;14.10;99.90;;;;;;5042100;28;20532;-37
2021/09/02 09:37:49;;;;;;;4.10;2.77;;;14.10;99.90;;;;;;5042219;28;20448;-37
2021/09/02 09:40:25;;;;;;;3.43;2.47;;;14.00;99.90;;;;;;5041813;28;20473;-37
2021/09/02 09:43:01;;;;;;;4.43;2.97;;;14.00;99.90;;;;;;5041891;28;20460;-38
2021/09/02 09:45:42;;;;;;;4.70;2.90;;;14.00;99.90;;;;;;5042206;28;20511;-37
2021/09/02 09:48:34;;;;;;;3.13;2.77;;;14.00;99.90;;;;;;5042148;28;20561;-37
2021/09/02 09:51:15;;;;;;;2.67;2.47;;;13.90;99.90;;;;;;5041945;28;20493;-38
2021/09/02 09:53:51;;;;;;;3.30;2.83;;;13.90;99.90;;;;;;5041699;28;20449;-39
2021/09/02 09:56:23;;;;;;;3.17;2.77;;;13.90;99.90;;;;;;5032786;28;20497;-40
2021/09/02 09:58:56;;;;;;;3.83;2.90;;;13.80;99.90;;;;;;5022017;28;20465;-39
2021/09/02 10:01:29;;;;;;;4.17;3.20;;;13.80;99.90;;;;;;5022184;28;20519;-37
2021/09/02 10:04:01;;;;;;;3.30;3.00;;;13.70;99.90;;;;;;5022010;28;20446;-40
2021/09/02 10:06:34;;;;;;;3.07;2.77;;;13.60;99.90;;;;;;5022228;28;20446;-37
2021/09/02 10:09:04;;;;;;;3.20;2.90;;;13.50;99.90;;;;;;5021249;28;20508;-36
2021/09/02 10:11:35;;;;;;;3.13;2.83;;;13.60;99.90;;;;;;5021979;28;20493;-37
2021/09/02 10:14:07;;;;;;;3.60;3.30;;;13.50;99.90;;;;;;5021423;28;20480;-38
2021/09/02 10:16:41;;;;;;;3.50;3.20;;;13.50;99.90;;;;;;5022294;28;20451;-37
2021/09/02 10:19:12;;;;;;;4.37;2.47;;;13.50;99.90;;;;;;5021992;28;20571;-36
2021/09/02 10:22:02;;;;;;;4.33;3.40;;;13.50;99.90;;;;;;5021676;28;20478;-35
2021/09/02 10:24:37;;;;;;;3.67;3.37;;;13.50;99.90;;;;;;5038691;28;20552;-36
2021/09/02 10:27:38;;;;;;;4.10;3.30;;;13.30;99.90;;;;;;5041956;28;20449;-37
2021/09/02 10:30:24;;;;;;;4.53;3.10;;;13.30;99.90;;;;;;5041254;28;20485;-37
2021/09/02 10:32:58;;;;;;;3.90;3.20;;;13.20;99.90;;;;;;5041678;28;20434;-37
2021/09/02 10:35:34;;;;;;;4.30;3.17;;;13.10;99.90;;;;;;5041723;28;20526;-37
2021/09/02 10:38:06;;;;;;;3.27;3.07;;;13.10;99.90;;;;;;5041394;28;20445;-37
2021/09/02 10:40:48;;;;;;;3.40;3.10;;;13.10;99.90;;;;;;5040819;28;20484;-37
2021/09/02 10:43:49;;;;;;;4.60;3.93;;;13.00;99.90;;;;;;5041035;28;20450;-37
2021/09/02 10:46:32;;;;;;;4.00;3.20;;;13.00;99.90;;;;;;5102443;28;20442;-37
2021/09/02 10:49:22;;;;;;;5.10;3.10;;;12.90;99.90;;;;;;5102004;28;20480;-37
2021/09/02 10:51:56;;;;;;;3.50;2.97;;;12.90;99.90;;;;;;5101862;28;20486;-37
2021/09/02 10:54:30;;;;;;;3.07;2.77;;;12.80;99.90;;;;;;5101043;28;20447;-37
2021/09/02 10:57:03;;;;;;;5.03;2.97;;;12.70;99.90;;;;;;5087431;28;20443;-37
2021/09/02 10:59:55;;;;;;;4.53;3.17;;;12.70;99.90;;;;;;5081471;28;20490;-37
2021/09/02 11:02:44;;;;;;;6.10;3.80;;;12.70;99.90;;;;;;5081511;28;20454;-38
2021/09/02 11:05:17;;;;;;;3.90;3.60;;;12.60;99.90;;;;;;5081789;28;20444;-37
2021/09/02 11:07:49;;;;;;;3.20;2.80;;;12.60;99.90;;;;;;5081197;28;20448;-37
2021/09/02 11:10:22;;;;;;;3.90;3.20;;;12.70;99.90;;;;;;5081068;28;20475;-36
2021/09/02 11:13:02;;;;;;;3.90;3.10;;;12.60;99.90;;;;;;5081021;28;20452;-36
2021/09/02 11:15:35;;;;;;;3.80;3.40;;;12.60;99.90;;;;;;5081242;28;20447;-37
2021/09/02 11:18:07;;;;;;;3.30;2.70;;;12.60;99.90;;;;;;5081394;28;20499;-37
2021/09/02 11:20:46;;;;;;;5.00;3.57;;;12.50;99.90;;;;;;5081356;28;20860;-37
2021/09/02 11:23:19;;;;;;;3.63;3.33;;;12.50;99.90;;;;;;5029187;28;20477;-37
2021/09/02 11:25:52;;;;;;;5.70;3.60;;;12.40;99.90;;;;;;5039693;28;20557;-37
2021/09/02 11:28:24;;;;;;;3.63;2.90;;;12.40;99.90;;;;;;5040647;28;20441;-37
2021/09/02 11:30:55;;;;;;;3.50;2.93;;;12.40;99.90;;;;;;5040490;28;20492;-36
2021/09/02 11:33:30;;;;;;;3.43;3.13;;;12.30;99.90;;;;;;5041406;28;20422;-37
2021/09/02 11:36:02;;;;;;;5.77;3.50;;;12.30;99.90;;;;;;5041249;28;20426;-37
2021/09/02 11:38:33;;;;;;;3.97;3.57;;;12.20;99.90;;;;;;5040763;28;20467;-37
2021/09/02 11:41:10;;;;;;;3.60;3.10;;;12.20;99.90;;;;;;5040336;28;20506;-37
2021/09/02 11:43:40;;;;;;;4.10;3.63;;;12.20;99.90;;;;;;5040494;28;20564;-36
2021/09/02 11:46:12;;;;;;;6.03;3.70;;;12.20;99.90;;;;;;5040902;28;20464;-38
2021/09/02 11:48:50;;;;;;;4.30;3.80;;;12.10;99.90;;;;;;5041156;28;20871;-39
2021/09/02 11:51:24;;;;;;;11.63;3.97;;;12.00;99.90;;;;;;5040894;28;20508;-38
2021/09/02 11:54:06;;;;;;;5.73;3.97;;;12.10;99.90;;;;;;5039970;28;20975;-38
2021/09/02 11:56:37;;;;;;;4.20;3.80;;;12.00;99.90;;;;;;5029354;28;20812;-38
2021/09/02 11:59:10;;;;;;;3.80;3.50;;;12.00;99.90;;;;;;5020268;28;20484;-39
2021/09/02 12:01:45;;;;;;;3.40;3.07;;;12.00;99.90;;;;;;5020620;28;20457;-38
2021/09/02 12:04:20;;;;;;;5.07;4.07;;;12.00;99.90;;;;;;5020311;28;20434;-37
2021/09/02 12:06:54;;;;;;;4.73;4.27;;;11.90;99.90;;;;;;5021057;28;20449;-37
2021/09/02 12:09:27;;;;;;;3.77;3.17;;;11.80;99.90;;;;;;5019910;28;20548;-37
2021/09/02 12:11:58;;;;;;;3.80;3.50;;;11.80;99.90;;;;;;5020549;28;20493;-38
2021/09/02 12:14:31;;;;;;;5.37;4.57;;;11.70;99.90;;;;;;5019997;28;20246;-36
2021/09/02 12:17:06;;;;;;;6.50;3.73;;;11.70;99.90;;;;;;5020565;28;20458;-37
2021/09/02 12:19:56;;;;;;;3.58;3.25;;;11.70;99.90;;;;;;5020266;28;20491;-38
2021/09/02 12:22:36;;;;;;;6.43;3.10;;;11.70;99.90;;;;;;5020575;28;20235;-38
2021/09/02 12:25:12;;;;;;;4.85;3.95;;;11.60;99.90;;;;;;5039847;28;20486;-37
2021/09/02 12:27:45;;;;;;;4.53;3.78;;;11.60;99.90;;;;;;5039911;28;20211;-38
2021/09/02 12:30:17;;;;;;;5.83;4.33;;;11.50;99.90;;;;;;5039781;28;20230;-38
2021/09/02 12:32:48;;;;;;;4.43;3.13;;;11.50;99.90;;;;;;5039571;28;20493;-37
2021/09/02 12:35:20;;;;;;;3.80;3.27;;;11.50;99.90;;;;;;5039641;28;20453;-37
2021/09/02 12:37:53;;;;;;;4.20;3.65;;;11.40;99.90;;;;;;5042956;28;20479;-37
2021/09/02 12:40:24;;;;;;;5.00;3.60;;;11.40;99.90;;;;;;5043017;28;20202;-37
2021/09/02 12:42:55;;;;;;;3.20;2.90;;;11.40;99.90;;;;;;5043082;28;20484;-37
2021/09/02 12:45:27;;;;;;;5.23;3.60;;;11.40;99.90;;;;;;5043051;28;20202;-37
2021/09/02 12:48:02;;;;;;;3.90;3.30;;;11.30;99.90;;;;;;5043311;28;20478;-37
2021/09/02 12:50:33;;;;;;;3.47;3.17;;;11.30;99.90;;;;;;5043028;28;20445;-38
2021/09/02 12:53:11;;;;;;;4.40;3.50;;;11.30;99.90;;;;;;5042680;28;20982;-37
2021/09/02 12:55:42;;;;;;;4.93;3.00;;;11.30;99.90;;;;;;5038956;28;20222;-37
2021/09/02 12:58:13;;;;;;;4.70;3.33;;;11.30;99.90;;;;;;5022818;28;20253;-37
2021/09/02 13:00:44;;;;;;;5.13;2.95;;;11.30;99.90;;;;;;5023191;28;20443;-38
2021/09/02 13:03:17;;;;;;;5.22;3.78;;;11.20;99.90;;;;;;5022859;28;20215;-37
2021/09/02 13:05:50;;;;;;;5.03;3.70;;;11.10;99.90;;;;;;5022843;28;20597;-37
2021/09/02 13:08:22;;;;;;;4.75;3.35;;;11.10;99.90;;;;;;5022704;28;20236;-38
2021/09/02 13:10:53;;;;;;;5.30;4.47;;;11.10;99.90;;;;;;5022656;28;20218;-38
2021/09/02 13:13:24;;;;;;;3.75;3.45;;;11.20;99.90;;;;;;5022453;28;20321;-37
2021/09/02 13:15:55;;;;;;;4.60;3.60;;;11.20;99.90;;;;;;5023186;28;20191;-37